sensor_id;sensor_type;location;lat;lon;timestamp;pressure;altitude;pressure_sealevel;temperature;humidity
66164;BME280;52962;51.088;3.096;2023-02-04T00:01:18;103171.03;;;10.00;100.00
66164;BME280;52962;51.088;3.096;2023-02-04T00:03:46;103183.94;;;9.95;100.00
66164;BME280;52962;51.088;3.096;2023-02-04T00:06:14;103180.22;;;9.92;100.00
66164;BME280;52962;51.088;3.096;2023-02-04T00:08:42;103179.75;;;9.84;100.00
66164;BME280;52962;51.088;3.096;2023-02-04T00:11:12;103184.47;;;9.90;100.00
66164;BME280;52962;51.088;3.096;2023-02-04T00:13:40;103181.56;;;9.85;100.00
66164;BME280;52962;51.088;3.096;2023-02-04T00:16:09;103165.97;;;9.88;100.00
66164;BME280;52962;51.088;3.096;2023-02-04T00:18:37;103169.59;;;9.90;100.00
66164;BME280;52962;51.088;3.096;2023-02-04T00:21:06;103173.13;;;9.91;100.00
66164;BME280;52962;51.088;3.096;2023-02-04T00:23:34;103170.13;;;9.84;100.00
66164;BME280;52962;51.088;3.096;2023-02-04T00:26:02;103169.03;;;9.81;100.00
66164;BME280;52962;51.088;3.096;2023-02-04T00:28:33;103167.69;;;9.88;100.00
66164;BME280;52962;51.088;3.096;2023-02-04T00:31:01;103169.31;;;9.86;100.00
66164;BME280;52962;51.088;3.096;2023-02-04T00:33:30;103169.50;;;9.89;100.00
66164;BME280;52962;51.088;3.096;2023-02-04T00:35:58;103163.13;;;9.85;100.00
66164;BME280;52962;51.088;3.096;2023-02-04T00:38:26;103171.75;;;9.82;100.00
66164;BME280;52962;51.088;3.096;2023-02-04T00:40:54;103166.50;;;9.82;100.00
66164;BME280;52962;51.088;3.096;2023-02-04T00:43:23;103174.38;;;9.82;100.00
66164;BME280;52962;51.088;3.096;2023-02-04T00:45:52;103167.41;;;9.83;100.00
66164;BME280;52962;51.088;3.096;2023-02-04T00:48:20;103175.13;;;9.80;100.00
66164;BME280;52962;51.088;3.096;2023-02-04T00:50:48;103170.84;;;9.82;100.00
66164;BME280;52962;51.088;3.096;2023-02-04T00:53:16;103174.28;;;9.81;100.00
66164;BME280;52962;51.088;3.096;2023-02-04T00:55:46;103178.47;;;9.77;100.00
66164;BME280;52962;51.088;3.096;2023-02-04T00:58:15;103177.03;;;9.82;100.00
66164;BME280;52962;51.088;3.096;2023-02-04T01:00:43;103182.28;;;9.82;100.00
66164;BME280;52962;51.088;3.096;2023-02-04T01:03:12;103194.63;;;9.83;100.00
66164;BME280;52962;51.088;3.096;2023-02-04T01:05:40;103187.75;;;9.86;100.00
66164;BME280;52962;51.088;3.096;2023-02-04T01:08:10;103194.81;;;9.87;100.00
66164;BME280;52962;51.088;3.096;2023-02-04T01:10:40;103187.56;;;9.82;100.00
66164;BME280;52962;51.088;3.096;2023-02-04T01:13:09;103192.81;;;9.82;100.00
66164;BME280;52962;51.088;3.096;2023-02-04T01:15:37;103195.63;;;9.86;100.00
66164;BME280;52962;51.088;3.096;2023-02-04T01:18:05;103193.63;;;9.81;100.00
66164;BME280;52962;51.088;3.096;2023-02-04T01:20:35;103197.34;;;9.85;100.00
66164;BME280;52962;51.088;3.096;2023-02-04T01:23:04;103197.25;;;9.83;100.00
66164;BME280;52962;51.088;3.096;2023-02-04T01:25:33;103202.44;;;9.82;100.00
66164;BME280;52962;51.088;3.096;2023-02-04T01:28:01;103199.91;;;9.83;100.00
66164;BME280;52962;51.088;3.096;2023-02-04T01:30:29;103193.44;;;9.78;100.00
66164;BME280;52962;51.088;3.096;2023-02-04T01:32:59;103200.53;;;9.79;100.00
66164;BME280;52962;51.088;3.096;2023-02-04T01:35:27;103203.44;;;9.84;100.00
66164;BME280;52962;51.088;3.096;2023-02-04T01:37:57;103201.72;;;9.84;100.00
66164;BME280;52962;51.088;3.096;2023-02-04T01:40:25;103199.91;;;9.83;100.00
66164;BME280;52962;51.088;3.096;2023-02-04T01:42:54;103214.78;;;9.83;100.00
66164;BME280;52962;51.088;3.096;2023-02-04T01:45:23;103210.78;;;9.90;100.00
66164;BME280;52962;51.088;3.096;2023-02-04T01:47:51;103214.06;;;9.86;100.00
66164;BME280;52962;51.088;3.096;2023-02-04T01:50:20;103211.22;;;9.82;100.00
66164;BME280;52962;51.088;3.096;2023-02-04T01:52:48;103221.13;;;9.87;100.00
66164;BME280;52962;51.088;3.096;2023-02-04T01:55:19;103217.69;;;9.88;100.00
66164;BME280;52962;51.088;3.096;2023-02-04T01:57:49;103217.69;;;9.88;100.00
66164;BME280;52962;51.088;3.096;2023-02-04T02:00:24;103218.59;;;9.88;100.00
66164;BME280;52962;51.088;3.096;2023-02-04T02:02:53;103215.69;;;9.83;100.00
66164;BME280;52962;51.088;3.096;2023-02-04T02:05:34;103219.31;;;9.86;100.00
66164;BME280;52962;51.088;3.096;2023-02-04T02:08:03;103216.50;;;9.82;100.00
66164;BME280;52962;51.088;3.096;2023-02-04T02:10:34;103222.75;;;9.84;100.00
66164;BME280;52962;51.088;3.096;2023-02-04T02:13:04;103217.50;;;9.84;100.00
66164;BME280;52962;51.088;3.096;2023-02-04T02:15:36;103215.69;;;9.83;100.00
66164;BME280;52962;51.088;3.096;2023-02-04T02:18:05;103222.66;;;9.83;100.00
66164;BME280;52962;51.088;3.096;2023-02-04T02:20:34;103221.75;;;9.82;100.00
66164;BME280;52962;51.088;3.096;2023-02-04T02:23:05;103222.75;;;9.84;100.00
66164;BME280;52962;51.088;3.096;2023-02-04T02:25:40;103225.31;;;9.83;100.00
66164;BME280;52962;51.088;3.096;2023-02-04T02:28:10;103226.03;;;9.80;100.00
66164;BME280;52962;51.088;3.096;2023-02-04T02:30:40;103224.41;;;9.82;100.00
66164;BME280;52962;51.088;3.096;2023-02-04T02:33:12;103226.31;;;9.85;100.00
66164;BME280;52962;51.088;3.096;2023-02-04T02:35:43;103224.59;;;9.86;100.00
66164;BME280;52962;51.088;3.096;2023-02-04T02:38:14;103223.56;;;9.83;100.00
66164;BME280;52962;51.088;3.096;2023-02-04T02:40:45;103228.22;;;9.88;100.00
66164;BME280;52962;51.088;3.096;2023-02-04T02:43:16;103225.59;;;9.88;100.00
66164;BME280;52962;51.088;3.096;2023-02-04T02:45:45;103231.75;;;9.88;100.00
66164;BME280;52962;51.088;3.096;2023-02-04T02:48:14;103240.56;;;9.89;100.00
66164;BME280;52962;51.088;3.096;2023-02-04T02:50:42;103241.00;;;9.81;100.00
66164;BME280;52962;51.088;3.096;2023-02-04T02:53:13;103233.66;;;9.91;100.00
66164;BME280;52962;51.088;3.096;2023-02-04T02:55:45;103242.19;;;9.87;100.00
66164;BME280;52962;51.088;3.096;2023-02-04T02:58:22;103244.38;;;9.94;100.00
66164;BME280;52962;51.088;3.096;2023-02-04T03:00:51;103255.19;;;9.98;100.00
66164;BME280;52962;51.088;3.096;2023-02-04T03:03:24;103257.75;;;9.97;100.00
66164;BME280;52962;51.088;3.096;2023-02-04T03:05:55;103249.09;;;9.84;100.00
66164;BME280;52962;51.088;3.096;2023-02-04T03:08:27;103261.78;;;9.77;100.00
66164;BME280;52962;51.088;3.096;2023-02-04T03:10:57;103261.38;;;9.71;100.00
66164;BME280;52962;51.088;3.096;2023-02-04T03:13:29;103257.75;;;9.69;100.00
66164;BME280;52962;51.088;3.096;2023-02-04T03:15:59;103264.53;;;9.65;100.00
66164;BME280;52962;51.088;3.096;2023-02-04T03:18:27;103269.63;;;9.62;100.00
66164;BME280;52962;51.088;3.096;2023-02-04T03:20:57;103264.25;;;9.61;100.00
66164;BME280;52962;51.088;3.096;2023-02-04T03:23:26;103268.22;;;9.54;100.00
66164;BME280;52962;51.088;3.096;2023-02-04T03:25:54;103268.72;;;9.62;100.00
66164;BME280;52962;51.088;3.096;2023-02-04T03:28:24;103270.53;;;9.63;100.00
66164;BME280;52962;51.088;3.096;2023-02-04T03:30:52;103268.63;;;9.60;100.00
66164;BME280;52962;51.088;3.096;2023-02-04T03:33:23;103275.69;;;9.61;100.00
66164;BME280;52962;51.088;3.096;2023-02-04T03:35:51;103271.16;;;9.59;100.00
66164;BME280;52962;51.088;3.096;2023-02-04T03:38:20;103274.19;;;9.51;100.00
66164;BME280;52962;51.088;3.096;2023-02-04T03:40:48;103269.66;;;9.49;100.00
66164;BME280;52962;51.088;3.096;2023-02-04T03:43:16;103273.09;;;9.48;100.00
66164;BME280;52962;51.088;3.096;2023-02-04T03:45:46;103269.47;;;9.46;100.00
66164;BME280;52962;51.088;3.096;2023-02-04T03:48:14;103274.72;;;9.46;100.00
66164;BME280;52962;51.088;3.096;2023-02-04T03:50:43;103261.47;;;9.44;100.00
66164;BME280;52962;51.088;3.096;2023-02-04T03:53:11;103268.56;;;9.45;100.00
66164;BME280;52962;51.088;3.096;2023-02-04T03:55:40;103269.16;;;9.41;100.00
66164;BME280;52962;51.088;3.096;2023-02-04T03:58:07;103269.97;;;9.40;100.00
66164;BME280;52962;51.088;3.096;2023-02-04T04:00:35;103274.34;;;9.40;100.00
66164;BME280;52962;51.088;3.096;2023-02-04T04:03:06;103272.34;;;9.36;100.00
66164;BME280;52962;51.088;3.096;2023-02-04T04:05:34;103279.25;;;9.34;100.00
66164;BME280;52962;51.088;3.096;2023-02-04T04:08:02;103282.47;;;9.30;100.00
66164;BME280;52962;51.088;3.096;2023-02-04T04:10:31;103279.66;;;9.27;100.00
66164;BME280;52962;51.088;3.096;2023-02-04T04:12:59;103279.66;;;9.27;100.00
66164;BME280;52962;51.088;3.096;2023-02-04T04:15:29;103283.91;;;9.25;100.00
66164;BME280;52962;51.088;3.096;2023-02-04T04:17:57;103288.16;;;9.23;100.00
66164;BME280;52962;51.088;3.096;2023-02-04T04:20:27;103285.31;;;9.20;100.00
66164;BME280;52962;51.088;3.096;2023-02-04T04:22:56;103292.41;;;9.21;100.00
66164;BME280;52962;51.088;3.096;2023-02-04T04:25:25;103284.63;;;9.22;100.00
66164;BME280;52962;51.088;3.096;2023-02-04T04:27:53;103294.31;;;9.23;100.00
66164;BME280;52962;51.088;3.096;2023-02-04T04:30:21;103289.34;;;9.28;100.00
66164;BME280;52962;51.088;3.096;2023-02-04T04:32:49;103299.16;;;9.30;100.00
66164;BME280;52962;51.088;3.096;2023-02-04T04:35:18;103291.19;;;9.29;100.00
66164;BME280;52962;51.088;3.096;2023-02-04T04:37:48;103286.34;;;9.22;100.00
66164;BME280;52962;51.088;3.096;2023-02-04T04:40:16;103294.03;;;9.18;100.00
66164;BME280;52962;51.088;3.096;2023-02-04T04:42:44;103284.72;;;9.10;100.00
66164;BME280;52962;51.088;3.096;2023-02-04T04:45:13;103294.53;;;9.00;100.00
66164;BME280;52962;51.088;3.096;2023-02-04T04:47:41;103290.78;;;8.83;100.00
66164;BME280;52962;51.088;3.096;2023-02-04T04:50:09;58706.69;;;-145.67;100.00
66164;BME280;52962;51.088;3.096;2023-02-04T04:52:38;58706.69;;;-145.67;100.00
66164;BME280;52962;51.088;3.096;2023-02-04T04:55:09;58706.69;;;-145.67;100.00
66164;BME280;52962;51.088;3.096;2023-02-04T04:57:37;58706.69;;;-145.67;100.00
66164;BME280;52962;51.088;3.096;2023-02-04T05:00:06;58706.69;;;-145.67;100.00
66164;BME280;52962;51.088;3.096;2023-02-04T05:02:35;58706.69;;;-145.67;100.00
66164;BME280;52962;51.088;3.096;2023-02-04T05:05:04;58706.69;;;-145.67;100.00
66164;BME280;52962;51.088;3.096;2023-02-04T05:07:32;58706.69;;;-145.67;100.00
66164;BME280;52962;51.088;3.096;2023-02-04T05:10:01;58706.69;;;-145.67;100.00
66164;BME280;52962;51.088;3.096;2023-02-04T05:12:31;58706.69;;;-145.67;100.00
66164;BME280;52962;51.088;3.096;2023-02-04T05:15:00;58706.69;;;-145.67;100.00
66164;BME280;52962;51.088;3.096;2023-02-04T05:17:28;58706.69;;;-145.67;100.00
66164;BME280;52962;51.088;3.096;2023-02-04T05:19:56;58706.69;;;-145.67;100.00
66164;BME280;52962;51.088;3.096;2023-02-04T05:22:24;58706.69;;;-145.67;100.00
66164;BME280;52962;51.088;3.096;2023-02-04T05:24:53;58706.69;;;-145.67;100.00
66164;BME280;52962;51.088;3.096;2023-02-04T05:27:21;58706.69;;;-145.67;100.00
66164;BME280;52962;51.088;3.096;2023-02-04T05:29:50;58706.69;;;-145.67;100.00
66164;BME280;52962;51.088;3.096;2023-02-04T05:32:18;58706.69;;;-145.67;100.00
66164;BME280;52962;51.088;3.096;2023-02-04T05:34:48;58706.69;;;-145.67;100.00
66164;BME280;52962;51.088;3.096;2023-02-04T05:37:15;58706.69;;;-145.67;100.00
66164;BME280;52962;51.088;3.096;2023-02-04T05:39:46;58706.69;;;-145.67;100.00
66164;BME280;52962;51.088;3.096;2023-02-04T05:42:14;58706.69;;;-145.67;100.00
66164;BME280;52962;51.088;3.096;2023-02-04T05:44:43;58706.69;;;-145.67;100.00
66164;BME280;52962;51.088;3.096;2023-02-04T05:47:12;58706.69;;;-145.67;100.00
66164;BME280;52962;51.088;3.096;2023-02-04T05:49:43;58706.69;;;-145.67;100.00
66164;BME280;52962;51.088;3.096;2023-02-04T05:52:11;58706.69;;;-145.67;100.00
66164;BME280;52962;51.088;3.096;2023-02-04T05:54:39;58706.69;;;-145.67;100.00
66164;BME280;52962;51.088;3.096;2023-02-04T05:57:07;58706.69;;;-145.67;100.00
66164;BME280;52962;51.088;3.096;2023-02-04T05:59:35;58706.69;;;-145.67;100.00
66164;BME280;52962;51.088;3.096;2023-02-04T06:02:04;58706.69;;;-145.67;100.00
66164;BME280;52962;51.088;3.096;2023-02-04T06:04:34;58706.69;;;-145.67;100.00
66164;BME280;52962;51.088;3.096;2023-02-04T06:07:02;58706.69;;;-145.67;100.00
66164;BME280;52962;51.088;3.096;2023-02-04T06:09:30;58706.69;;;-145.67;100.00
66164;BME280;52962;51.088;3.096;2023-02-04T06:11:59;58706.69;;;-145.67;100.00
66164;BME280;52962;51.088;3.096;2023-02-04T06:14:27;58706.69;;;-145.67;100.00
66164;BME280;52962;51.088;3.096;2023-02-04T06:16:55;58706.69;;;-145.67;100.00
66164;BME280;52962;51.088;3.096;2023-02-04T06:19:25;58706.69;;;-145.67;100.00
66164;BME280;52962;51.088;3.096;2023-02-04T06:21:55;58706.69;;;-145.67;100.00
66164;BME280;52962;51.088;3.096;2023-02-04T06:24:23;58706.69;;;-145.67;100.00
66164;BME280;52962;51.088;3.096;2023-02-04T06:26:52;58706.69;;;-145.67;100.00
66164;BME280;52962;51.088;3.096;2023-02-04T06:29:20;58706.69;;;-145.67;100.00
66164;BME280;52962;51.088;3.096;2023-02-04T06:31:48;58706.69;;;-145.67;100.00
66164;BME280;52962;51.088;3.096;2023-02-04T06:34:17;58706.69;;;-145.67;100.00
66164;BME280;52962;51.088;3.096;2023-02-04T06:36:45;58706.69;;;-145.67;100.00
66164;BME280;52962;51.088;3.096;2023-02-04T06:39:14;58706.69;;;-145.67;100.00
66164;BME280;52962;51.088;3.096;2023-02-04T06:41:42;58706.69;;;-145.67;100.00
66164;BME280;52962;51.088;3.096;2023-02-04T06:44:10;58706.69;;;-145.67;100.00
66164;BME280;52962;51.088;3.096;2023-02-04T06:46:39;58706.69;;;-145.67;100.00
66164;BME280;52962;51.088;3.096;2023-02-04T06:49:08;58706.69;;;-145.67;100.00
66164;BME280;52962;51.088;3.096;2023-02-04T06:51:36;58706.69;;;-145.67;100.00
66164;BME280;52962;51.088;3.096;2023-02-04T06:54:04;58706.69;;;-145.67;100.00
66164;BME280;52962;51.088;3.096;2023-02-04T06:56:34;58706.69;;;-145.67;100.00
66164;BME280;52962;51.088;3.096;2023-02-04T06:59:02;58706.69;;;-145.67;100.00
66164;BME280;52962;51.088;3.096;2023-02-04T07:01:30;58706.69;;;-145.67;100.00
66164;BME280;52962;51.088;3.096;2023-02-04T07:03:59;58706.69;;;-145.67;100.00
66164;BME280;52962;51.088;3.096;2023-02-04T07:06:27;58706.69;;;-145.67;100.00
66164;BME280;52962;51.088;3.096;2023-02-04T07:09:01;58706.69;;;-145.67;100.00
66164;BME280;52962;51.088;3.096;2023-02-04T07:11:29;58706.69;;;-145.67;100.00
66164;BME280;52962;51.088;3.096;2023-02-04T07:13:59;58706.69;;;-145.67;100.00
66164;BME280;52962;51.088;3.096;2023-02-04T07:16:27;58706.69;;;-145.67;100.00
66164;BME280;52962;51.088;3.096;2023-02-04T07:18:55;58706.69;;;-145.67;100.00
66164;BME280;52962;51.088;3.096;2023-02-04T07:21:24;58706.69;;;-145.67;100.00
66164;BME280;52962;51.088;3.096;2023-02-04T07:23:53;58706.69;;;-145.67;100.00
66164;BME280;52962;51.088;3.096;2023-02-04T07:26:21;58706.69;;;-145.67;100.00
66164;BME280;52962;51.088;3.096;2023-02-04T07:28:50;58706.69;;;-145.67;100.00
66164;BME280;52962;51.088;3.096;2023-02-04T07:31:19;58706.69;;;-145.67;100.00
66164;BME280;52962;51.088;3.096;2023-02-04T07:33:51;58706.69;;;-145.67;100.00
66164;BME280;52962;51.088;3.096;2023-02-04T07:36:19;58706.69;;;-145.67;100.00
66164;BME280;52962;51.088;3.096;2023-02-04T07:38:47;58706.69;;;-145.67;100.00
66164;BME280;52962;51.088;3.096;2023-02-04T07:41:15;58706.69;;;-145.67;100.00
66164;BME280;52962;51.088;3.096;2023-02-04T07:43:44;58706.69;;;-145.67;100.00
66164;BME280;52962;51.088;3.096;2023-02-04T07:46:12;58706.69;;;-145.67;100.00
66164;BME280;52962;51.088;3.096;2023-02-04T07:48:42;58706.69;;;-145.67;100.00
66164;BME280;52962;51.088;3.096;2023-02-04T07:51:11;58706.69;;;-145.67;100.00
66164;BME280;52962;51.088;3.096;2023-02-04T07:53:39;58706.69;;;-145.67;100.00
66164;BME280;52962;51.088;3.096;2023-02-04T07:56:07;58706.69;;;-145.67;100.00
66164;BME280;52962;51.088;3.096;2023-02-04T07:58:35;58706.69;;;-145.67;100.00
66164;BME280;52962;51.088;3.096;2023-02-04T08:01:04;58706.69;;;-145.67;100.00
66164;BME280;52962;51.088;3.096;2023-02-04T08:03:32;58706.69;;;-145.67;100.00
66164;BME280;52962;51.088;3.096;2023-02-04T08:06:04;58706.69;;;-145.67;100.00
66164;BME280;52962;51.088;3.096;2023-02-04T08:08:33;58706.69;;;-145.67;100.00
66164;BME280;52962;51.088;3.096;2023-02-04T08:11:01;58706.69;;;-145.67;100.00
66164;BME280;52962;51.088;3.096;2023-02-04T08:13:29;58706.69;;;-145.67;100.00
66164;BME280;52962;51.088;3.096;2023-02-04T08:15:57;58706.69;;;-145.67;100.00
66164;BME280;52962;51.088;3.096;2023-02-04T08:18:26;58706.69;;;-145.67;100.00
66164;BME280;52962;51.088;3.096;2023-02-04T08:20:55;58706.69;;;-145.67;100.00
66164;BME280;52962;51.088;3.096;2023-02-04T08:23:26;58706.69;;;-145.67;100.00
66164;BME280;52962;51.088;3.096;2023-02-04T08:25:54;58706.69;;;-145.67;100.00
66164;BME280;52962;51.088;3.096;2023-02-04T08:28:23;58706.69;;;-145.67;100.00
66164;BME280;52962;51.088;3.096;2023-02-04T08:30:51;58706.69;;;-145.67;100.00
66164;BME280;52962;51.088;3.096;2023-02-04T08:33:19;58706.69;;;-145.67;100.00
66164;BME280;52962;51.088;3.096;2023-02-04T08:35:48;58706.69;;;-145.67;100.00
66164;BME280;52962;51.088;3.096;2023-02-04T08:38:17;58706.69;;;-145.67;100.00
66164;BME280;52962;51.088;3.096;2023-02-04T08:40:47;58706.69;;;-145.67;100.00
66164;BME280;52962;51.088;3.096;2023-02-04T08:43:15;58706.69;;;-145.67;100.00
66164;BME280;52962;51.088;3.096;2023-02-04T08:45:44;58706.69;;;-145.67;100.00
66164;BME280;52962;51.088;3.096;2023-02-04T08:48:12;58706.69;;;-145.67;100.00
66164;BME280;52962;51.088;3.096;2023-02-04T08:50:40;58706.69;;;-145.67;100.00
66164;BME280;52962;51.088;3.096;2023-02-04T08:53:09;58706.69;;;-145.67;100.00
66164;BME280;52962;51.088;3.096;2023-02-04T08:55:37;58706.69;;;-145.67;100.00
66164;BME280;52962;51.088;3.096;2023-02-04T08:58:07;58706.69;;;-145.67;100.00
66164;BME280;52962;51.088;3.096;2023-02-04T09:00:35;58706.69;;;-145.67;100.00
66164;BME280;52962;51.088;3.096;2023-02-04T09:03:04;58706.69;;;-145.67;100.00
66164;BME280;52962;51.088;3.096;2023-02-04T09:05:32;58706.69;;;-145.67;100.00
66164;BME280;52962;51.088;3.096;2023-02-04T09:08:01;58706.69;;;-145.67;100.00
66164;BME280;52962;51.088;3.096;2023-02-04T09:10:29;58706.69;;;-145.67;100.00
66164;BME280;52962;51.088;3.096;2023-02-04T09:12:58;58706.69;;;-145.67;100.00
66164;BME280;52962;51.088;3.096;2023-02-04T09:15:28;58706.69;;;-145.67;100.00
66164;BME280;52962;51.088;3.096;2023-02-04T09:17:56;58706.69;;;-145.67;100.00
66164;BME280;52962;51.088;3.096;2023-02-04T09:20:30;58706.69;;;-145.67;100.00
66164;BME280;52962;51.088;3.096;2023-02-04T09:23:02;58706.69;;;-145.67;100.00
66164;BME280;52962;51.088;3.096;2023-02-04T09:25:30;58706.69;;;-145.67;100.00
66164;BME280;52962;51.088;3.096;2023-02-04T09:27:58;58706.69;;;-145.67;100.00
66164;BME280;52962;51.088;3.096;2023-02-04T09:30:28;58706.69;;;-145.67;100.00
66164;BME280;52962;51.088;3.096;2023-02-04T09:32:57;58706.69;;;-145.67;100.00
66164;BME280;52962;51.088;3.096;2023-02-04T09:35:25;58706.69;;;-145.67;100.00
66164;BME280;52962;51.088;3.096;2023-02-04T09:37:53;58706.69;;;-145.67;100.00
66164;BME280;52962;51.088;3.096;2023-02-04T09:40:21;58706.69;;;-145.67;100.00
66164;BME280;52962;51.088;3.096;2023-02-04T09:42:51;58706.69;;;-145.67;100.00
66164;BME280;52962;51.088;3.096;2023-02-04T09:45:22;58706.69;;;-145.67;100.00
66164;BME280;52962;51.088;3.096;2023-02-04T09:47:53;58706.69;;;-145.67;100.00
66164;BME280;52962;51.088;3.096;2023-02-04T09:50:25;58706.69;;;-145.67;100.00
66164;BME280;52962;51.088;3.096;2023-02-04T09:52:56;58706.69;;;-145.67;100.00
66164;BME280;52962;51.088;3.096;2023-02-04T09:55:29;58706.69;;;-145.67;100.00
66164;BME280;52962;51.088;3.096;2023-02-04T09:57:58;58706.69;;;-145.67;100.00
66164;BME280;52962;51.088;3.096;2023-02-04T10:00:27;58706.69;;;-145.67;100.00
66164;BME280;52962;51.088;3.096;2023-02-04T10:02:59;58706.69;;;-145.67;100.00
66164;BME280;52962;51.088;3.096;2023-02-04T10:05:31;58706.69;;;-145.67;100.00
66164;BME280;52962;51.088;3.096;2023-02-04T10:07:59;58706.69;;;-145.67;100.00
66164;BME280;52962;51.088;3.096;2023-02-04T10:10:27;58706.69;;;-145.67;100.00
66164;BME280;52962;51.088;3.096;2023-02-04T10:13:01;103300.19;;;8.66;100.00
66164;BME280;52962;51.088;3.096;2023-02-04T10:15:31;103467.25;;;10.62;100.00
66164;BME280;52962;51.088;3.096;2023-02-04T10:18:05;103467.59;;;10.54;100.00
66164;BME280;52962;51.088;3.096;2023-02-04T10:20:34;103484.50;;;10.57;100.00
66164;BME280;52962;51.088;3.096;2023-02-04T10:23:02;103473.28;;;10.46;100.00
66164;BME280;52962;51.088;3.096;2023-02-04T10:25:30;103477.94;;;10.51;100.00
66164;BME280;52962;51.088;3.096;2023-02-04T10:27:59;103477.41;;;10.56;100.00
66164;BME280;52962;51.088;3.096;2023-02-04T10:30:29;103478.50;;;10.60;100.00
66164;BME280;52962;51.088;3.096;2023-02-04T10:33:13;103489.81;;;10.72;100.00
66164;BME280;52962;51.088;3.096;2023-02-04T10:35:46;103488.38;;;10.77;100.00
66164;BME280;52962;51.088;3.096;2023-02-04T10:38:15;103488.38;;;10.77;100.00
66164;BME280;52962;51.088;3.096;2023-02-04T10:40:43;103495.66;;;10.81;100.00
66164;BME280;52962;51.088;3.096;2023-02-04T10:43:15;103492.00;;;10.79;100.00
66164;BME280;52962;51.088;3.096;2023-02-04T10:45:45;103500.53;;;10.75;100.00
66164;BME280;52962;51.088;3.096;2023-02-04T10:48:17;103484.19;;;10.80;100.00
66164;BME280;52962;51.088;3.096;2023-02-04T10:50:46;103491.81;;;10.76;100.00
66164;BME280;52962;51.088;3.096;2023-02-04T10:53:17;103485.63;;;10.75;100.00
66164;BME280;52962;51.088;3.096;2023-02-04T10:56:10;103489.84;;;10.87;100.00
66164;BME280;52962;51.088;3.096;2023-02-04T10:58:42;103485.47;;;10.87;100.00
66164;BME280;52962;51.088;3.096;2023-02-04T11:01:11;103482.41;;;10.94;100.00
66164;BME280;52962;51.088;3.096;2023-02-04T11:03:42;103475.69;;;10.99;100.00
66164;BME280;52962;51.088;3.096;2023-02-04T11:06:19;103477.13;;;11.09;100.00
66164;BME280;52962;51.088;3.096;2023-02-04T11:08:48;103478.25;;;11.12;100.00
66164;BME280;52962;51.088;3.096;2023-02-04T11:11:23;103476.22;;;11.08;100.00
66164;BME280;52962;51.088;3.096;2023-02-04T11:13:59;103486.06;;;11.11;100.00
66164;BME280;52962;51.088;3.096;2023-02-04T11:16:30;103483.88;;;11.19;100.00
66164;BME280;52962;51.088;3.096;2023-02-04T11:19:04;103480.69;;;11.24;100.00
66164;BME280;52962;51.088;3.096;2023-02-04T11:21:41;103484.59;;;11.16;100.00
66164;BME280;52962;51.088;3.096;2023-02-04T11:24:22;103483.88;;;11.33;100.00
66164;BME280;52962;51.088;3.096;2023-02-04T11:27:03;103485.06;;;11.24;100.00
66164;BME280;52962;51.088;3.096;2023-02-04T11:29:32;103485.44;;;11.30;100.00
66164;BME280;52962;51.088;3.096;2023-02-04T11:32:05;103478.59;;;11.33;100.00
66164;BME280;52962;51.088;3.096;2023-02-04T11:35:06;103470.97;;;11.38;100.00
66164;BME280;52962;51.088;3.096;2023-02-04T11:37:36;103474.94;;;11.46;100.00
66164;BME280;52962;51.088;3.096;2023-02-04T11:40:23;103490.47;;;11.56;100.00
66164;BME280;52962;51.088;3.096;2023-02-04T11:42:55;103475.63;;;11.58;100.00
66164;BME280;52962;51.088;3.096;2023-02-04T11:45:26;103482.09;;;11.63;100.00
66164;BME280;52962;51.088;3.096;2023-02-04T11:47:58;103488.19;;;11.62;100.00
66164;BME280;52962;51.088;3.096;2023-02-04T11:50:30;103488.66;;;11.55;100.00
66164;BME280;52962;51.088;3.096;2023-02-04T11:53:00;103485.84;;;11.52;100.00
66164;BME280;52962;51.088;3.096;2023-02-04T11:55:29;103479.28;;;11.60;100.00
66164;BME280;52962;51.088;3.096;2023-02-04T11:58:00;103486.03;;;11.55;100.00
66164;BME280;52962;51.088;3.096;2023-02-04T12:00:29;103469.50;;;11.43;100.00
66164;BME280;52962;51.088;3.096;2023-02-04T12:03:00;103485.66;;;11.49;100.00
66164;BME280;52962;51.088;3.096;2023-02-04T12:05:40;103491.13;;;11.52;100.00
66164;BME280;52962;51.088;3.096;2023-02-04T12:08:11;103486.38;;;11.61;100.00
66164;BME280;52962;51.088;3.096;2023-02-04T12:10:47;103488.38;;;11.65;100.00
66164;BME280;52962;51.088;3.096;2023-02-04T12:13:21;103480.28;;;11.62;100.00
66164;BME280;52962;51.088;3.096;2023-02-04T12:16:00;103477.63;;;11.62;100.00
66164;BME280;52962;51.088;3.096;2023-02-04T12:18:30;103491.28;;;11.70;100.00
66164;BME280;52962;51.088;3.096;2023-02-04T12:21:01;103487.28;;;11.62;100.00
66164;BME280;52962;51.088;3.096;2023-02-04T12:23:30;103488.72;;;11.71;100.00
66164;BME280;52962;51.088;3.096;2023-02-04T12:25:58;103477.56;;;11.46;100.00
66164;BME280;52962;51.088;3.096;2023-02-04T12:28:26;103483.66;;;11.45;100.00
66164;BME280;52962;51.088;3.096;2023-02-04T12:30:54;103490.22;;;11.52;100.00
66164;BME280;52962;51.088;3.096;2023-02-04T12:33:23;103485.81;;;11.67;100.00
66164;BME280;52962;51.088;3.096;2023-02-04T12:35:52;103491.47;;;11.58;100.00
66164;BME280;52962;51.088;3.096;2023-02-04T12:38:21;103486.03;;;11.55;100.00
66164;BME280;52962;51.088;3.096;2023-02-04T12:40:49;103486.19;;;11.58;100.00
66164;BME280;52962;51.088;3.096;2023-02-04T12:43:17;58706.69;;;-145.67;100.00
66164;BME280;52962;51.088;3.096;2023-02-04T12:45:46;58706.69;;;-145.67;100.00
66164;BME280;52962;51.088;3.096;2023-02-04T12:48:16;103482.75;;;11.59;100.00
66164;BME280;52962;51.088;3.096;2023-02-04T12:50:44;103470.53;;;11.61;100.00
66164;BME280;52962;51.088;3.096;2023-02-04T12:53:13;103470.53;;;11.61;100.00